Time;durP1;ratioP1;P1;durP2;ratioP2;P2;SDS_P1;SDS_P2;PMS_P1;PMS_P2;Temp;Humidity;BMP_temperature;BMP_pressure;BME280_temperature;BME280_humidity;BME280_pressure;Samples;Min_cycle;Max_cycle;Signal;HPM_P1;HPM_P2
2021/10/03 00:00:46;;;;;;;4.70;3.00;;;;;;;16.98;56.52;97222.59;8417837;28;20509;-69
2021/10/03 00:04:49;;;;;;;3.80;3.10;;;;;;;17.34;55.88;97223.97;8418698;28;20199;-69
2021/10/03 00:08:54;;;;;;;3.73;3.30;;;;;;;17.09;56.61;97219.09;8418422;28;20234;-69
2021/10/03 00:13:03;;;;;;;4.63;3.40;;;;;;;17.19;56.60;97215.59;8418508;28;20199;-69
2021/10/03 00:17:05;;;;;;;4.10;3.70;;;;;;;17.22;56.46;97206.66;8418332;28;20210;-69
2021/10/03 00:21:10;;;;;;;4.43;3.03;;;;;;;17.04;56.97;97209.03;8418234;28;20205;-69
2021/10/03 00:25:14;;;;;;;4.93;3.10;;;;;;;16.92;57.22;97215.25;8417983;28;20206;-69
2021/10/03 00:29:17;;;;;;;3.80;3.30;;;;;;;17.23;56.75;97215.31;8417882;28;20366;-69
2021/10/03 00:33:20;;;;;;;5.40;3.53;;;;;;;16.92;57.87;97215.25;8417666;28;20245;-69
2021/10/03 00:37:23;;;;;;;4.57;3.30;;;;;;;16.49;59.19;97216.94;8417571;28;20210;-69
2021/10/03 00:41:27;;;;;;;4.93;3.43;;;;;;;17.10;56.98;97213.75;8417230;28;20246;-69
2021/10/03 00:45:32;;;;;;;6.47;3.47;;;;;;;17.07;57.16;97198.28;8417244;28;20270;-69
2021/10/03 00:49:36;;;;;;;3.57;3.20;;;;;;;16.95;57.86;97194.09;8417257;28;20206;-69
2021/10/03 00:53:39;;;;;;;3.70;3.10;;;;;;;17.25;56.95;97195.94;8416875;28;20199;-69
2021/10/03 00:57:44;;;;;;;3.97;3.40;;;;;;;16.97;57.62;97184.31;8417068;28;20565;-69
2021/10/03 01:01:47;;;;;;;5.33;3.37;;;;;;;17.09;57.41;97187.72;8417058;28;20199;-69
2021/10/03 01:05:51;;;;;;;5.00;3.50;;;;;;;16.95;58.35;97189.69;8416588;28;20253;-69
2021/10/03 01:09:53;;;;;;;5.90;3.50;;;;;;;16.92;58.11;97186.47;8416753;28;20199;-69
2021/10/03 01:13:58;;;;;;;5.10;3.47;;;;;;;16.65;58.86;97179.91;8416210;28;20397;-69
2021/10/03 01:18:01;;;;;;;4.93;3.50;;;;;;;17.00;58.12;97184.91;8416565;28;20518;-69
2021/10/03 01:22:05;;;;;;;4.83;3.90;;;;;;;16.88;58.66;97180.69;8416596;28;20508;-69
2021/10/03 01:26:08;;;;;;;4.57;3.37;;;;;;;17.23;57.24;97182.16;8416317;28;20238;-69
2021/10/03 01:30:14;;;;;;;4.50;3.70;;;;;;;17.17;57.65;97180.88;8416306;28;20222;-70
2021/10/03 01:34:17;;;;;;;4.23;3.40;;;;;;;17.25;57.32;97179.41;8416091;28;20223;-69
2021/10/03 01:38:21;;;;;;;5.93;4.20;;;;;;;16.87;58.36;97184.25;8416145;28;20222;-69
2021/10/03 01:42:24;;;;;;;5.47;3.87;;;;;;;16.83;58.86;97187.25;8415971;28;20231;-69
2021/10/03 01:46:27;;;;;;;4.73;4.27;;;;;;;16.90;58.64;97176.16;8415869;28;20607;-69
2021/10/03 01:50:30;;;;;;;5.90;3.90;;;;;;;16.77;59.30;97170.25;8416063;28;20199;-69
2021/10/03 01:54:35;;;;;;;6.33;3.93;;;;;;;16.98;58.29;97168.50;8415702;28;20223;-69
2021/10/03 01:58:40;;;;;;;5.17;4.00;;;;;;;16.81;59.28;97166.41;8416049;28;20210;-69
2021/10/03 02:02:45;;;;;;;4.83;4.17;;;;;;;16.71;59.81;97161.09;8415835;28;20392;-69
2021/10/03 02:06:51;;;;;;;4.70;4.20;;;;;;;16.76;59.80;97160.75;8415848;28;20223;-69
2021/10/03 02:10:55;;;;;;;6.23;4.40;;;;;;;16.57;60.11;97161.44;8415906;28;20491;-69
2021/10/03 02:14:58;;;;;;;5.80;4.47;;;;;;;16.65;60.02;97147.72;8415456;28;20199;-69
2021/10/03 02:19:01;;;;;;;5.63;4.93;;;;;;;16.66;59.89;97158.06;8415646;28;20389;-69
2021/10/03 02:23:05;;;;;;;6.70;4.20;;;;;;;16.72;60.22;97148.88;8415681;28;20199;-69
2021/10/03 02:27:09;;;;;;;7.07;4.67;;;;;;;16.71;59.96;97145.44;8421853;28;20233;-69
2021/10/03 02:31:13;;;;;;;4.97;4.40;;;;;;;16.92;59.10;97145.47;8421776;28;20408;-69
2021/10/03 02:35:16;;;;;;;6.10;4.87;;;;;;;16.65;60.32;97145.13;8421365;28;20413;-69
2021/10/03 02:39:19;;;;;;;5.90;4.70;;;;;;;16.88;59.38;97146.69;8421183;28;20417;-69
2021/10/03 02:43:24;;;;;;;4.97;4.47;;;;;;;16.86;59.64;97153.00;8421273;28;20238;-69
2021/10/03 02:47:27;;;;;;;6.23;4.73;;;;;;;16.81;59.81;97146.34;8421073;28;20230;-69
2021/10/03 02:51:31;;;;;;;5.50;4.73;;;;;;;16.98;59.28;97151.97;8421186;28;20199;-69
2021/10/03 02:55:34;;;;;;;7.03;5.40;;;;;;;16.69;60.33;97147.34;8420892;28;20203;-69
2021/10/03 02:59:38;;;;;;;9.53;5.13;;;;;;;16.93;59.92;97141.09;8420826;28;20516;-69
2021/10/03 03:03:41;;;;;;;6.53;5.10;;;;;;;16.83;59.86;97138.41;8420625;28;20199;-69
2021/10/03 03:07:44;;;;;;;8.70;5.03;;;;;;;16.67;60.96;97135.34;8420368;28;20227;-69
2021/10/03 03:11:47;;;;;;;7.63;5.40;;;;;;;16.39;61.88;97135.00;8420498;28;20199;-69
2021/10/03 03:15:51;;;;;;;5.73;5.13;;;;;;;16.63;60.76;97132.16;8420415;28;20214;-69
2021/10/03 03:19:54;;;;;;;7.70;5.17;;;;;;;16.69;60.19;97134.25;8420129;28;20210;-69
2021/10/03 03:23:57;;;;;;;5.63;5.00;;;;;;;16.67;60.62;97123.09;8420114;28;20224;-69
2021/10/03 03:28:00;;;;;;;7.50;5.87;;;;;;;16.56;61.01;97121.41;8419815;28;20233;-69
2021/10/03 03:32:05;;;;;;;6.33;5.73;;;;;;;16.79;60.12;97124.72;8419766;28;20205;-69
2021/10/03 03:36:08;;;;;;;6.23;5.63;;;;;;;16.73;60.24;97116.53;8419236;28;20541;-69
2021/10/03 03:40:12;;;;;;;6.70;5.87;;;;;;;16.22;61.88;97116.31;8419730;28;20207;-69
2021/10/03 03:44:15;;;;;;;8.17;5.50;;;;;;;16.52;61.55;97117.34;8419263;28;20234;-69
2021/10/03 03:48:19;;;;;;;6.70;5.30;;;;;;;16.48;60.99;97110.72;8419209;28;20227;-69
2021/10/03 03:52:22;;;;;;;7.33;5.87;;;;;;;16.60;61.03;97125.41;8419028;28;20195;-69
2021/10/03 03:56:25;;;;;;;7.60;5.80;;;;;;;16.65;60.17;97116.38;8418983;28;20199;-69
2021/10/03 04:00:28;;;;;;;8.13;6.20;;;;;;;16.32;61.55;97108.53;8418900;28;20483;-69
2021/10/03 04:04:32;;;;;;;8.50;6.40;;;;;;;16.16;61.92;97108.13;8418771;28;20530;-69
2021/10/03 04:08:38;;;;;;;8.30;5.90;;;;;;;16.33;61.59;97111.97;8418626;28;20530;-69
2021/10/03 04:12:41;;;;;;;6.77;6.10;;;;;;;16.45;61.39;97105.78;8418406;28;20211;-69
2021/10/03 04:16:44;;;;;;;7.10;6.17;;;;;;;16.36;61.30;97096.06;8418320;28;20199;-69
2021/10/03 04:20:48;;;;;;;6.80;6.20;;;;;;;16.28;61.69;97088.84;8418296;28;20199;-69
2021/10/03 04:24:51;;;;;;;6.83;6.10;;;;;;;16.33;61.55;97098.91;8418147;28;20490;-69
2021/10/03 04:28:54;;;;;;;6.90;5.93;;;;;;;16.23;61.75;97094.44;8417857;28;20230;-69
2021/10/03 04:32:57;;;;;;;7.97;7.17;;;;;;;16.29;61.28;97098.34;8417768;28;20219;-69
2021/10/03 04:37:02;;;;;;;6.90;6.20;;;;;;;16.01;61.98;97100.56;8417676;28;20210;-69
2021/10/03 04:41:05;;;;;;;7.70;6.20;;;;;;;16.50;60.52;97093.13;8417245;28;20234;-69
2021/10/03 04:45:09;;;;;;;10.07;6.63;;;;;;;16.51;60.28;97089.56;8417352;28;20199;-69
2021/10/03 04:49:12;;;;;;;7.00;6.27;;;;;;;16.48;60.41;97089.81;8416687;28;20226;-69
2021/10/03 04:53:17;;;;;;;8.00;6.83;;;;;;;16.16;61.24;97098.53;8417020;28;20203;-69
2021/10/03 04:57:20;;;;;;;10.07;7.00;;;;;;;16.16;61.29;97082.00;8417011;28;20209;-69
2021/10/03 05:01:23;;;;;;;8.77;6.50;;;;;;;16.47;60.13;97082.94;8416932;28;20206;-69
2021/10/03 05:05:26;;;;;;;7.57;6.83;;;;;;;16.39;60.33;97094.03;8416763;28;20206;-69
2021/10/03 05:09:31;;;;;;;7.67;6.97;;;;;;;16.50;60.25;97087.09;8416702;28;20222;-69
2021/10/03 05:13:34;;;;;;;8.43;6.53;;;;;;;16.36;60.48;97081.22;8416619;28;20283;-69
2021/10/03 05:17:36;;;;;;;8.30;7.13;;;;;;;16.50;59.66;97081.84;8416518;28;20467;-69
2021/10/03 05:21:39;;;;;;;7.67;6.70;;;;;;;16.52;59.70;97080.75;8416504;28;20210;-69
2021/10/03 05:25:44;;;;;;;7.67;6.90;;;;;;;16.28;59.73;97078.41;8416603;28;20387;-69
2021/10/03 05:29:47;;;;;;;8.37;7.00;;;;;;;16.32;60.11;97074.59;8416294;28;20222;-69
2021/10/03 05:33:50;;;;;;;7.80;7.10;;;;;;;16.18;60.17;97077.47;8416386;28;20230;-69
2021/10/03 05:37:52;;;;;;;8.03;6.70;;;;;;;16.32;59.72;97069.34;8416200;28;20206;-69
2021/10/03 05:41:57;;;;;;;7.50;6.73;;;;;;;16.49;59.23;97069.75;8416305;28;20542;-70
2021/10/03 05:46:00;;;;;;;8.60;7.73;;;;;;;16.35;59.39;97070.88;8416413;28;20199;-70
2021/10/03 05:50:03;;;;;;;8.77;7.67;;;;;;;16.31;59.34;97067.69;8416043;28;20222;-69
2021/10/03 05:54:08;;;;;;;8.10;6.90;;;;;;;16.45;58.93;97069.19;8415560;28;20495;-69
2021/10/03 05:58:12;;;;;;;10.57;8.03;;;;;;;16.36;59.27;97064.72;8417973;28;20202;-69
2021/10/03 06:02:15;;;;;;;8.93;7.03;;;;;;;16.48;58.93;97076.75;8422601;28;20482;-69
2021/10/03 06:06:18;;;;;;;8.77;7.40;;;;;;;16.60;58.19;97075.75;8422308;28;20203;-69
2021/10/03 06:10:21;;;;;;;8.57;7.67;;;;;;;16.50;58.21;97076.63;8422282;28;20553;-69
2021/10/03 06:14:25;;;;;;;8.60;7.60;;;;;;;16.69;57.90;97078.56;8422436;28;20203;-69
2021/10/03 06:18:28;;;;;;;6.93;6.00;;;;;;;17.00;60.13;97076.81;8422295;28;20498;-73
2021/10/03 06:22:31;;;;;;;9.17;7.83;;;;;;;16.77;57.21;97071.75;8420622;28;20222;-69
2021/10/03 06:26:34;;;;;;;8.53;7.73;;;;;;;16.84;57.23;97092.16;8421171;28;20203;-69
2021/10/03 06:30:39;;;;;;;9.13;8.07;;;;;;;16.83;57.01;97080.88;8421136;28;20233;-69
2021/10/03 06:34:41;;;;;;;9.80;8.03;;;;;;;16.93;56.77;97079.13;8420466;28;20215;-69
2021/10/03 06:38:44;;;;;;;11.40;7.97;;;;;;;16.90;57.10;97083.78;8420933;28;20203;-69
2021/10/03 06:42:47;;;;;;;9.77;8.13;;;;;;;16.98;56.02;97086.59;8420446;28;20227;-69
2021/10/03 06:46:51;;;;;;;8.43;7.63;;;;;;;17.39;55.60;97092.72;8420092;28;20386;-69
2021/10/03 06:50:54;;;;;;;10.17;7.93;;;;;;;17.28;54.72;97096.22;8420245;28;20223;-69
2021/10/03 06:54:57;;;;;;;10.43;7.57;;;;;;;17.37;54.49;97095.44;8420344;28;20203;-69
2021/10/03 06:59:00;;;;;;;10.03;8.07;;;;;;;17.50;54.57;97094.41;8419646;28;20206;-69
2021/10/03 07:03:04;;;;;;;10.40;7.50;;;;;;;17.51;54.39;97096.88;8420615;28;20401;-69
2021/10/03 07:07:07;;;;;;;9.33;7.03;;;;;;;17.64;54.01;97106.31;8420726;28;20486;-69
2021/10/03 07:11:10;;;;;;;7.90;7.10;;;;;;;17.43;54.32;97101.94;8420079;28;20226;-69
2021/10/03 07:15:13;;;;;;;8.20;7.40;;;;;;;17.44;54.03;97105.38;8419693;28;20215;-69
2021/10/03 07:19:17;;;;;;;11.13;7.90;;;;;;;17.15;54.74;97093.00;8419356;28;20394;-68
2021/10/03 07:23:20;;;;;;;8.07;7.27;;;;;;;17.41;53.61;97098.63;8419006;28;20210;-70
2021/10/03 07:27:23;;;;;;;9.50;7.63;;;;;;;17.46;53.95;97103.47;8418958;28;20191;-69
2021/10/03 07:31:26;;;;;;;7.50;6.87;;;;;;;17.98;52.52;97105.03;8419337;28;20565;-69
2021/10/03 07:35:30;;;;;;;10.00;7.47;;;;;;;18.06;51.91;97104.34;8419536;28;20297;-69
2021/10/03 07:39:34;;;;;;;8.53;7.30;;;;;;;18.30;51.05;97097.91;8419491;28;20209;-69
2021/10/03 07:43:37;;;;;;;8.23;7.23;;;;;;;18.12;51.55;97100.34;8419740;28;20241;-69
2021/10/03 07:47:41;;;;;;;7.67;6.80;;;;;;;18.18;50.77;97094.56;8419219;28;20372;-69
2021/10/03 07:51:45;;;;;;;9.77;6.87;;;;;;;18.49;49.98;97099.69;8418942;28;20237;-69
2021/10/03 07:55:48;;;;;;;7.07;6.40;;;;;;;18.55;49.96;97104.38;8419114;28;20207;-70
2021/10/03 07:59:51;;;;;;;9.03;6.50;;;;;;;18.50;49.80;97096.91;8418726;28;20202;-69
2021/10/03 08:03:55;;;;;;;9.80;6.20;;;;;;;19.20;48.14;97098.50;8418732;28;20207;-69
2021/10/03 08:08:01;;;;;;;7.33;6.37;;;;;;;19.48;46.65;97109.84;8418539;28;20206;-69
2021/10/03 08:12:04;;;;;;;7.43;6.50;;;;;;;19.47;47.13;97093.25;8418711;28;20199;-69
2021/10/03 08:16:08;;;;;;;7.67;6.40;;;;;;;19.58;46.87;97088.81;8418530;28;20210;-69
2021/10/03 08:20:11;;;;;;;9.53;5.93;;;;;;;19.73;46.45;97097.88;8417792;28;20499;-70
2021/10/03 08:24:15;;;;;;;8.20;6.13;;;;;;;19.30;47.39;97101.91;8417549;28;20205;-68
2021/10/03 08:28:23;;;;;;;7.10;6.40;;;;;;;19.55;47.16;97100.41;8417754;28;20218;-70
2021/10/03 08:32:27;;;;;;;9.57;6.13;;;;;;;19.50;46.76;97103.47;8416939;28;20190;-69
2021/10/03 08:36:30;;;;;;;9.10;6.17;;;;;;;19.59;46.94;97103.56;8416647;28;20258;-69
2021/10/03 08:40:35;;;;;;;8.90;6.27;;;;;;;19.97;45.44;97099.09;8416334;28;20196;-69
2021/10/03 08:44:38;;;;;;;8.37;5.20;;;;;;;19.77;45.59;97107.13;8416533;28;20517;-69
2021/10/03 08:48:41;;;;;;;8.80;5.53;;;;;;;20.16;45.71;97093.72;8416209;28;21145;-69
2021/10/03 08:52:46;;;;;;;7.53;5.60;;;;;;;19.59;46.42;97101.78;8416216;28;20196;-69
2021/10/03 08:56:50;;;;;;;8.73;5.70;;;;;;;19.85;45.72;97104.56;8416005;28;20192;-69
2021/10/03 09:00:54;;;;;;;6.57;5.87;;;;;;;19.53;46.41;97097.09;8414064;28;20526;-70
2021/10/03 09:05:00;;;;;;;6.20;5.60;;;;;;;19.49;46.21;97101.00;8415792;28;20381;-69
2021/10/03 09:09:03;;;;;;;6.23;5.57;;;;;;;19.33;47.17;97112.13;8415641;28;20216;-69
2021/10/03 09:13:08;;;;;;;9.00;5.33;;;;;;;19.34;46.68;97096.22;8413656;28;20195;-69
2021/10/03 09:17:17;;;;;;;9.67;5.80;;;;;;;19.28;47.08;97088.09;8413505;28;20389;-70
2021/10/03 09:21:38;;;;;;;6.10;4.83;;;;;;;19.28;47.11;97093.34;8416208;28;20408;-70
2021/10/03 09:25:45;;;;;;;5.87;4.93;;;;;;;19.52;46.95;97091.03;8416599;28;20210;-70
2021/10/03 09:29:49;;;;;;;6.57;5.03;;;;;;;19.48;47.08;97094.94;8416354;28;20226;-70
2021/10/03 09:33:53;;;;;;;8.70;5.50;;;;;;;19.66;47.00;97094.97;8415790;28;20535;-71
2021/10/03 09:37:56;;;;;;;6.77;5.40;;;;;;;19.77;46.75;97095.78;8415980;28;20206;-71
2021/10/03 09:42:12;;;;;;;5.53;4.97;;;;;;;19.70;46.71;97095.50;8415716;28;20227;-71
2021/10/03 09:46:37;;;;;;;6.03;5.10;;;;;;;19.92;46.30;97091.69;8413018;28;20200;-71
2021/10/03 09:50:40;;;;;;;6.20;5.60;;;;;;;20.03;46.06;97094.09;8414159;28;20221;-71
2021/10/03 09:54:43;;;;;;;5.20;4.70;;;;;;;19.87;46.44;97101.81;8414915;28;20278;-71
2021/10/03 09:58:47;;;;;;;5.73;5.13;;;;;;;20.29;45.90;97093.34;8409774;28;20198;-72
2021/10/03 10:02:52;;;;;;;5.67;4.87;;;;;;;21.17;43.40;97088.13;8415283;28;20575;-71
2021/10/03 10:06:55;;;;;;;6.67;5.17;;;;;;;21.64;42.53;97094.78;8415874;28;20200;-71
2021/10/03 10:11:04;;;;;;;9.37;4.90;;;;;;;21.32;42.74;97093.63;8415556;28;20545;-71
2021/10/03 10:15:10;;;;;;;7.87;5.37;;;;;;;21.36;42.36;97092.34;8415834;28;20202;-71
2021/10/03 10:19:36;;;;;;;6.83;4.87;;;;;;;21.41;42.99;97084.78;8415411;28;20418;-71
2021/10/03 10:23:39;;;;;;;5.60;4.53;;;;;;;20.93;43.07;97080.91;8414565;28;20194;-70
2021/10/03 10:28:07;;;;;;;6.50;4.70;;;;;;;21.39;42.42;97091.19;8415268;28;20212;-71
2021/10/03 10:32:10;;;;;;;7.70;4.63;;;;;;;21.37;42.90;97077.38;8415352;28;20230;-71
2021/10/03 10:36:19;;;;;;;8.80;4.60;;;;;;;21.65;42.52;97080.66;8415157;28;20206;-71
2021/10/03 10:40:28;;;;;;;4.97;4.47;;;;;;;21.40;42.40;97075.25;8415309;28;20207;-71
2021/10/03 10:44:39;;;;;;;6.17;4.83;;;;;;;22.13;42.08;97070.38;8416485;28;20366;-73
2021/10/03 10:48:42;;;;;;;8.50;5.00;;;;;;;22.14;41.11;97072.03;8421414;28;20520;-71
2021/10/03 10:52:46;;;;;;;5.87;4.87;;;;;;;22.06;41.15;97067.56;8421188;28;20545;-71
2021/10/03 10:56:49;;;;;;;8.00;4.70;;;;;;;21.56;42.52;97063.97;8420812;28;20390;-71
2021/10/03 11:01:12;;;;;;;5.23;4.70;;;;;;;21.71;42.67;97068.66;8420725;28;20211;-71
2021/10/03 11:05:43;;;;;;;5.10;4.10;;;;;;;22.10;41.96;97071.53;8420698;28;20198;-71
2021/10/03 11:10:11;;;;;;;5.73;4.57;;;;;;;22.12;42.00;97068.72;8420331;28;20234;-71
2021/10/03 11:14:21;;;;;;;5.00;4.23;;;;;;;22.18;42.41;97060.16;8420553;28;20205;-71
2021/10/03 11:18:24;;;;;;;7.40;5.10;;;;;;;22.25;42.53;97058.56;8420393;28;20201;-75
2021/10/03 11:22:29;;;;;;;5.90;4.70;;;;;;;21.87;43.19;97050.22;8419990;28;20206;-71
2021/10/03 11:26:46;;;;;;;6.60;4.70;;;;;;;21.92;42.64;97050.56;8420128;28;20199;-71
2021/10/03 11:30:53;;;;;;;7.33;4.43;;;;;;;22.27;42.04;97053.94;8420059;28;20230;-72
2021/10/03 11:34:58;;;;;;;4.43;4.03;;;;;;;22.64;41.53;97048.19;8419836;28;20223;-71
2021/10/03 11:39:00;;;;;;;8.00;4.60;;;;;;;23.28;40.53;97043.94;8419576;28;20209;-71
2021/10/03 11:43:05;;;;;;;7.07;3.80;;;;;;;23.25;40.11;97052.19;8419021;28;20401;-71
2021/10/03 11:47:10;;;;;;;5.60;4.30;;;;;;;23.64;39.43;97040.81;8419691;28;20393;-71
2021/10/03 11:51:13;;;;;;;5.13;4.37;;;;;;;24.12;38.79;97036.25;8419013;28;20232;-71
2021/10/03 11:55:18;;;;;;;7.40;4.60;;;;;;;24.13;37.97;97035.28;8419053;28;20198;-71
2021/10/03 11:59:22;;;;;;;7.13;4.50;;;;;;;24.24;38.40;97048.09;8419219;28;20206;-71
2021/10/03 12:03:26;;;;;;;7.37;4.70;;;;;;;24.10;39.15;97052.28;8419047;28;20209;-71
2021/10/03 12:07:29;;;;;;;5.90;4.30;;;;;;;23.88;38.93;97039.91;8418935;28;20199;-71
2021/10/03 12:11:47;;;;;;;5.33;4.00;;;;;;;23.57;38.92;97046.81;8418726;28;20223;-72
2021/10/03 12:15:56;;;;;;;6.10;3.70;;;;;;;23.43;39.61;97034.31;8418328;28;20258;-82
2021/10/03 12:19:59;;;;;;;7.20;5.97;;;;;;;23.46;39.63;97028.69;8418321;28;20208;-80
2021/10/03 12:24:07;;;;;;;7.70;3.90;;;;;;;23.27;39.78;97024.63;8418228;28;20417;-78
2021/10/03 12:28:10;;;;;;;5.10;3.83;;;;;;;23.39;40.28;97025.88;8418066;28;20205;-79
2021/10/03 12:32:17;;;;;;;5.47;4.27;;;;;;;23.07;40.54;97029.47;8417680;28;20565;-79
2021/10/03 12:36:20;;;;;;;7.33;4.00;;;;;;;23.36;40.50;97020.13;8417168;28;20195;-79
2021/10/03 12:40:23;;;;;;;4.20;3.60;;;;;;;23.32;40.24;97024.94;8416518;28;20199;-78
2021/10/03 12:44:27;;;;;;;9.33;6.07;;;;;;;23.56;39.96;97021.34;8384158;28;20388;-79
2021/10/03 12:48:32;;;;;;;4.30;3.90;;;;;;;23.99;39.04;97013.88;8384123;28;20496;-77
2021/10/03 12:52:34;;;;;;;5.13;3.30;;;;;;;23.92;38.64;97010.28;8383987;28;20408;-79
2021/10/03 12:56:37;;;;;;;3.43;2.87;;;;;;;24.82;38.23;97002.63;8383647;28;20211;-78
2021/10/03 13:00:40;;;;;;;5.03;3.47;;;;;;;24.93;37.42;97008.28;8383947;28;20207;-69
2021/10/03 13:04:45;;;;;;;4.37;3.70;;;;;;;24.39;38.19;97005.81;8383858;28;20201;-70
2021/10/03 13:08:52;;;;;;;8.07;3.80;;;;;;;24.40;38.20;97008.25;8383310;28;20207;-68
2021/10/03 13:12:55;;;;;;;7.57;3.73;;;;;;;24.33;39.29;97009.16;8390478;28;20223;-69
2021/10/03 13:16:58;;;;;;;9.23;3.70;;;;;;;25.25;37.30;97013.44;8416462;28;20214;-70
2021/10/03 13:21:04;;;;;;;6.07;3.90;;;;;;;24.61;38.81;97009.44;8416422;28;20211;-69
2021/10/03 13:25:08;;;;;;;4.70;3.60;;;;;;;24.15;39.01;97012.09;8416389;28;20307;-69
2021/10/03 13:29:11;;;;;;;5.67;3.47;;;;;;;24.24;39.40;96999.63;8416482;28;20203;-69
2021/10/03 13:33:14;;;;;;;6.93;4.07;;;;;;;23.89;39.68;96997.41;8416208;28;20406;-69
2021/10/03 13:37:18;;;;;;;4.53;3.53;;;;;;;23.75;39.61;96990.22;8416054;28;20207;-69
2021/10/03 13:41:22;;;;;;;5.57;3.70;;;;;;;23.55;40.06;97003.03;8415849;28;20235;-70
2021/10/03 13:45:25;;;;;;;6.23;3.70;;;;;;;23.75;40.24;97014.00;8416160;28;20370;-69
2021/10/03 13:49:28;;;;;;;6.10;3.40;;;;;;;23.63;40.04;97008.28;8416036;28;20199;-69
2021/10/03 13:53:32;;;;;;;6.60;3.70;;;;;;;23.53;40.46;97023.50;8416076;28;20235;-69
2021/10/03 13:57:35;;;;;;;6.60;3.73;;;;;;;23.31;41.18;97022.47;8415730;28;20361;-69
2021/10/03 14:01:38;;;;;;;4.93;3.67;;;;;;;23.14;41.53;97029.63;8416004;28;20214;-70
2021/10/03 14:05:41;;;;;;;4.00;3.60;;;;;;;23.19;41.95;97040.53;8415928;28;20199;-68
2021/10/03 14:09:45;;;;;;;7.30;3.70;;;;;;;23.21;41.82;97038.53;8415634;28;20218;-69
2021/10/03 14:13:48;;;;;;;4.37;3.87;;;;;;;23.16;42.23;97048.78;8415738;28;20240;-69
2021/10/03 14:17:51;;;;;;;4.97;3.40;;;;;;;23.19;41.56;97045.81;8415581;28;20522;-68
2021/10/03 14:21:54;;;;;;;3.73;3.27;;;;;;;23.02;41.91;97050.28;8422001;28;20278;-77
2021/10/03 14:25:58;;;;;;;13.07;3.20;;;;;;;22.95;41.72;97041.38;8422242;28;20207;-82
2021/10/03 14:30:01;;;;;;;3.97;3.40;;;;;;;22.87;42.42;97047.50;8421965;28;20213;-81
2021/10/03 14:34:04;;;;;;;6.07;3.43;;;;;;;;;;8421584;28;20230;-80
2021/10/03 14:38:08;;;;;;;3.33;3.00;;;;;;;22.98;42.69;97060.34;8421732;28;20214;-79
2021/10/03 14:42:12;;;;;;;5.23;3.40;;;;;;;22.91;42.96;97062.00;8420712;28;20239;-80
2021/10/03 14:46:18;;;;;;;5.13;3.33;;;;;;;22.81;43.17;97051.63;8420499;28;20202;-80
2021/10/03 14:50:22;;;;;;;7.23;3.73;;;;;;;22.80;43.80;97049.97;8421510;28;20195;-80
2021/10/03 14:54:25;;;;;;;4.00;3.60;;;;;;;22.86;43.59;97055.56;8420992;28;20209;-80
2021/10/03 14:58:29;;;;;;;5.00;4.10;;;;;;;22.76;43.99;97069.75;8421102;28;20272;-79
2021/10/03 15:02:32;;;;;;;4.20;3.60;;;;;;;22.75;44.19;97051.44;8420892;28;20229;-80
2021/10/03 15:06:37;;;;;;;5.13;4.33;;;;;;;22.72;45.02;97057.09;8419593;28;20205;-82
2021/10/03 15:10:41;;;;;;;7.67;4.97;;;;;;;22.65;44.80;97075.38;8421107;28;20201;-82
2021/10/03 15:14:45;;;;;;;4.37;3.97;;;;;;;22.76;45.00;97082.97;8420551;28;20202;-81
2021/10/03 15:18:48;;;;;;;5.03;3.90;;;;;;;22.71;45.26;97092.38;8420474;28;20557;-82
2021/10/03 15:22:51;;;;;;;5.57;3.93;;;;;;;22.62;45.50;97081.81;8420047;28;20276;-71
2021/10/03 15:26:55;;;;;;;6.43;4.23;;;;;;;22.59;45.73;97090.06;8420164;28;20248;-69
2021/10/03 15:30:59;;;;;;;7.77;4.30;;;;;;;22.59;45.85;97099.78;8419154;28;20280;-73
2021/10/03 15:35:02;;;;;;;4.83;3.53;;;;;;;22.62;46.01;97112.66;8419788;28;20227;-71
2021/10/03 15:39:06;;;;;;;7.27;3.93;;;;;;;22.59;45.75;97124.34;8419490;28;20198;-72
2021/10/03 15:43:09;;;;;;;4.60;3.87;;;;;;;22.60;45.80;97117.28;8419111;28;20245;-72
2021/10/03 15:47:13;;;;;;;4.30;3.90;;;;;;;22.62;45.96;97124.03;8419461;28;20211;-73
2021/10/03 15:51:16;;;;;;;5.00;3.70;;;;;;;22.60;46.13;97125.19;8419158;28;20231;-70
2021/10/03 15:55:19;;;;;;;6.10;4.43;;;;;;;22.54;46.91;97116.13;8418584;28;20202;-72
2021/10/03 15:59:22;;;;;;;5.03;4.40;;;;;;;22.53;46.60;97135.56;8418544;28;20199;-71
2021/10/03 16:03:26;;;;;;;5.73;4.03;;;;;;;22.51;46.98;97150.75;8418853;28;20209;-70
2021/10/03 16:07:29;;;;;;;4.40;4.00;;;;;;;22.48;47.98;97158.97;8418217;28;20410;-70
2021/10/03 16:11:32;;;;;;;5.07;4.23;;;;;;;22.41;48.14;97169.38;8417569;28;20219;-70
2021/10/03 16:15:35;;;;;;;7.50;6.70;;;;;;;22.37;48.59;97173.31;8417303;28;20195;-71
2021/10/03 16:19:39;;;;;;;7.37;6.23;;;;;;;22.30;49.01;97169.66;8418039;28;20205;-71
2021/10/03 16:23:42;;;;;;;6.27;5.30;;;;;;;22.29;49.47;97173.28;8418153;28;20210;-71
2021/10/03 16:27:46;;;;;;;6.40;5.80;;;;;;;22.17;49.79;97183.28;8418162;28;20494;-70
2021/10/03 16:31:48;;;;;;;8.87;5.53;;;;;;;22.16;50.34;97191.34;8417967;28;20229;-71
2021/10/03 16:35:53;;;;;;;6.90;4.70;;;;;;;22.09;50.91;97200.88;8417717;28;20229;-70
2021/10/03 16:39:56;;;;;;;7.30;5.10;;;;;;;22.02;51.02;97208.59;8417582;28;20205;-71
2021/10/03 16:43:59;;;;;;;6.73;4.87;;;;;;;22.03;50.73;97213.72;8416621;28;20244;-69
2021/10/03 16:48:02;;;;;;;6.27;4.93;;;;;;;21.99;51.28;97217.66;8417471;28;20270;-70
2021/10/03 16:52:08;;;;;;;5.67;4.60;;;;;;;21.89;51.40;97227.47;8417218;28;20226;-70
2021/10/03 16:56:10;;;;;;;5.40;4.60;;;;;;;21.78;52.75;97230.38;8417135;28;20198;-70
2021/10/03 17:00:15;;;;;;;5.00;4.50;;;;;;;21.76;51.83;97235.84;8416979;28;20202;-69
2021/10/03 17:04:18;;;;;;;7.60;5.00;;;;;;;21.72;52.40;97242.38;8416666;28;20206;-72
2021/10/03 17:08:23;;;;;;;4.77;4.27;;;;;;;21.74;52.18;97258.88;8416837;28;20224;-72
2021/10/03 17:12:29;;;;;;;4.77;4.30;;;;;;;21.73;52.00;97267.75;8416477;28;20223;-73
2021/10/03 17:16:32;;;;;;;4.93;4.40;;;;;;;21.65;52.67;97284.34;8416624;28;20202;-73
2021/10/03 17:20:35;;;;;;;11.93;10.73;;;;;;;21.60;52.48;97283.97;8416547;28;20202;-72
2021/10/03 17:24:39;;;;;;;8.87;5.83;;;;;;;21.47;51.75;97292.25;8416798;28;20213;-72
2021/10/03 17:28:43;;;;;;;5.67;4.40;;;;;;;21.46;50.23;97297.69;8416718;28;20199;-72
2021/10/03 17:32:46;;;;;;;5.67;3.50;;;;;;;21.46;49.55;97305.59;8416221;28;20237;-72
2021/10/03 17:36:49;;;;;;;3.13;2.83;;;;;;;21.45;49.06;97315.28;8416158;28;20206;-72
2021/10/03 17:40:54;;;;;;;6.80;3.00;;;;;;;21.42;49.27;97322.66;8415896;28;20203;-72
2021/10/03 17:44:57;;;;;;;2.97;2.60;;;;;;;21.41;49.03;97328.91;8416375;28;20499;-72
2021/10/03 17:49:00;;;;;;;5.97;2.60;;;;;;;21.41;49.36;97323.63;8415989;28;20205;-72
2021/10/03 17:53:03;;;;;;;5.93;2.90;;;;;;;21.36;49.41;97337.25;8415598;28;20564;-71
2021/10/03 17:57:08;;;;;;;4.00;3.10;;;;;;;21.39;49.12;97346.66;8415813;28;20203;-71
2021/10/03 18:01:14;;;;;;;83.87;57.13;;;;;;;21.43;51.60;97350.63;8415709;28;20199;-73
2021/10/03 18:05:17;;;;;;;41.17;26.73;;;;;;;21.61;50.46;97361.19;8415262;28;20203;-78
2021/10/03 18:09:20;;;;;;;8.03;4.33;;;;;;;21.43;49.16;97369.91;8415765;28;20199;-71
2021/10/03 18:13:24;;;;;;;7.37;2.80;;;;;;;21.29;48.96;97371.25;8415542;28;20242;-71
2021/10/03 18:17:27;;;;;;;2.50;2.30;;;;;;;21.20;49.16;97380.06;8415586;28;20202;-71
2021/10/03 18:21:30;;;;;;;3.40;2.60;;;;;;;21.22;49.46;97387.81;8415502;28;20210;-71
2021/10/03 18:25:34;;;;;;;4.23;3.07;;;;;;;21.24;49.27;97393.75;8415602;28;20211;-71
2021/10/03 18:29:38;;;;;;;3.67;2.63;;;;;;;21.20;49.62;97401.13;8415378;28;20368;-71
2021/10/03 18:33:41;;;;;;;2.70;2.50;;;;;;;21.17;49.78;97397.94;8415249;28;20252;-71
2021/10/03 18:37:45;;;;;;;3.33;2.57;;;;;;;21.08;49.52;97403.13;8415292;28;20273;-71
2021/10/03 18:41:48;;;;;;;4.23;2.90;;;;;;;21.05;50.21;97408.69;8414614;28;20230;-70
2021/10/03 18:45:52;;;;;;;6.13;3.10;;;;;;;20.99;50.56;97404.00;8414810;28;20195;-71
2021/10/03 18:49:55;;;;;;;6.13;2.70;;;;;;;20.97;50.88;97418.31;8414822;28;20202;-72
2021/10/03 18:53:58;;;;;;;3.93;3.00;;;;;;;20.96;50.95;97430.66;8414847;28;20227;-72
2021/10/03 18:58:01;;;;;;;6.27;3.20;;;;;;;20.96;51.03;97442.94;8414871;28;20210;-71
2021/10/03 19:02:05;;;;;;;3.73;3.07;;;;;;;20.88;51.18;97460.28;8414054;28;20352;-72
2021/10/03 19:06:08;;;;;;;4.07;2.77;;;;;;;20.77;51.76;97465.78;8415853;28;20619;-72
2021/10/03 19:10:11;;;;;;;3.10;2.80;;;;;;;20.71;52.46;97479.47;8419706;28;20200;-71